Time;durP1;ratioP1;P1;durP2;ratioP2;P2;SDS_P1;SDS_P2;PMS_P1;PMS_P2;Temp;Humidity;BMP_temperature;BMP_pressure;BME280_temperature;BME280_humidity;BME280_pressure;Samples;Min_cycle;Max_cycle;Signal;HPM_P1;HPM_P2
2021/05/29 00:01:11;;;;;;;14.70;13.90;;;10.40;99.90;;;;;;5015722;28;20535;-65
2021/05/29 00:03:38;;;;;;;14.30;13.60;;;10.40;99.90;;;;;;5015186;28;20445;-63
2021/05/29 00:06:05;;;;;;;14.50;13.77;;;10.40;99.90;;;;;;5015106;28;20442;-65
2021/05/29 00:08:32;;;;;;;15.93;14.73;;;10.40;99.90;;;;;;5014919;28;20446;-63
2021/05/29 00:11:00;;;;;;;15.33;14.53;;;10.30;99.90;;;;;;5014898;28;20458;-65
2021/05/29 00:13:27;;;;;;;15.37;14.07;;;10.30;99.90;;;;;;5014860;28;20518;-63
2021/05/29 00:15:54;;;;;;;14.53;13.70;;;10.20;99.90;;;;;;5014847;28;20450;-65
2021/05/29 00:18:20;;;;;;;15.07;14.00;;;10.20;99.90;;;;;;5014726;28;21070;-65
2021/05/29 00:20:48;;;;;;;14.57;13.67;;;10.10;99.90;;;;;;5014552;28;20466;-64
2021/05/29 00:23:14;;;;;;;15.30;14.50;;;10.10;99.90;;;;;;5014764;28;20450;-63
2021/05/29 00:25:43;;;;;;;13.57;12.87;;;10.00;99.90;;;;;;5014773;28;20450;-64
2021/05/29 00:28:10;;;;;;;24.83;14.67;;;10.00;99.90;;;;;;5014791;28;20803;-65
2021/05/29 00:30:36;;;;;;;14.40;13.50;;;10.00;99.90;;;;;;5014441;28;20465;-65
2021/05/29 00:33:02;;;;;;;14.70;13.40;;;9.90;99.90;;;;;;5014395;28;20450;-65
2021/05/29 00:35:29;;;;;;;13.60;13.00;;;9.90;99.90;;;;;;5014612;28;20457;-65
2021/05/29 00:37:56;;;;;;;13.87;13.03;;;9.90;99.90;;;;;;5014383;28;20481;-64
2021/05/29 00:40:22;;;;;;;15.03;13.60;;;9.80;99.90;;;;;;5014197;28;20473;-65
2021/05/29 00:42:48;;;;;;;14.30;13.30;;;9.80;99.90;;;;;;5014590;28;20811;-65
2021/05/29 00:45:15;;;;;;;13.30;12.60;;;9.70;99.90;;;;;;5014321;28;20450;-65
2021/05/29 00:47:41;;;;;;;14.47;13.50;;;9.80;99.90;;;;;;5014221;28;20438;-64
2021/05/29 00:50:11;;;;;;;13.00;12.30;;;9.70;99.90;;;;;;5014132;28;20469;-64
2021/05/29 00:52:39;;;;;;;14.30;13.50;;;9.70;99.90;;;;;;5014111;28;20453;-65
2021/05/29 00:55:09;;;;;;;16.40;14.97;;;9.70;99.90;;;;;;5014339;28;20449;-63
2021/05/29 00:57:38;;;;;;;13.30;12.50;;;9.70;99.90;;;;;;5014122;28;20482;-64
2021/05/29 01:00:06;;;;;;;14.07;13.27;;;9.60;99.90;;;;;;5014078;28;20513;-65
2021/05/29 01:02:32;;;;;;;13.70;13.00;;;9.60;99.90;;;;;;5012874;28;20454;-63
2021/05/29 01:04:58;;;;;;;13.30;12.63;;;9.60;99.90;;;;;;5014064;28;20446;-65
2021/05/29 01:07:24;;;;;;;14.30;13.37;;;9.60;99.90;;;;;;5013932;28;20785;-65
2021/05/29 01:09:51;;;;;;;13.27;12.37;;;9.60;99.90;;;;;;5013688;28;20802;-64
2021/05/29 01:12:18;;;;;;;13.60;12.80;;;9.60;99.90;;;;;;5013755;28;20449;-65
2021/05/29 01:14:53;;;;;;;13.10;12.40;;;9.50;99.90;;;;;;5013765;28;20537;-64
2021/05/29 01:17:20;;;;;;;13.57;12.77;;;9.50;99.90;;;;;;5013787;28;20485;-65
2021/05/29 01:19:46;;;;;;;13.90;13.10;;;9.50;99.90;;;;;;5013566;28;20813;-65
2021/05/29 01:22:14;;;;;;;13.90;13.07;;;9.50;99.90;;;;;;5013834;28;20814;-64
2021/05/29 01:24:41;;;;;;;14.57;13.30;;;9.50;99.90;;;;;;5013687;28;20453;-63
2021/05/29 01:27:08;;;;;;;15.50;13.27;;;9.50;99.90;;;;;;5013677;28;20438;-65
2021/05/29 01:29:35;;;;;;;13.63;12.83;;;9.40;99.90;;;;;;5013237;28;20796;-64
2021/05/29 01:32:04;;;;;;;12.80;12.20;;;9.40;99.90;;;;;;5013427;28;20549;-64
2021/05/29 01:34:36;;;;;;;14.40;13.47;;;9.30;99.90;;;;;;5013497;28;20454;-66
2021/05/29 01:37:04;;;;;;;12.93;12.23;;;9.30;99.90;;;;;;5013332;28;20864;-65
2021/05/29 01:39:32;;;;;;;13.80;13.00;;;9.20;99.90;;;;;;5013197;28;20442;-65
2021/05/29 01:41:59;;;;;;;13.47;12.40;;;9.20;99.90;;;;;;5013115;28;20462;-65
2021/05/29 01:44:26;;;;;;;13.00;12.30;;;9.20;99.90;;;;;;5013250;28;20509;-65
2021/05/29 01:46:53;;;;;;;13.20;12.23;;;9.10;99.90;;;;;;5013222;28;20450;-64
2021/05/29 01:49:20;;;;;;;13.83;12.90;;;9.10;99.90;;;;;;5013014;28;20623;-65
2021/05/29 01:51:47;;;;;;;14.93;14.00;;;9.10;99.90;;;;;;5013153;28;20465;-64
2021/05/29 01:54:15;;;;;;;12.87;12.07;;;9.00;99.90;;;;;;5013175;28;20446;-65
2021/05/29 01:56:42;;;;;;;14.00;12.90;;;9.00;99.90;;;;;;5013004;28;20941;-64
2021/05/29 01:59:08;;;;;;;15.13;13.10;;;9.00;99.90;;;;;;5012806;28;20453;-64
2021/05/29 02:01:35;;;;;;;12.67;11.97;;;8.90;99.90;;;;;;5012747;28;20474;-64
2021/05/29 02:04:02;;;;;;;14.93;13.67;;;8.80;99.90;;;;;;5012884;28;20478;-65
2021/05/29 02:06:28;;;;;;;12.70;11.80;;;8.80;99.90;;;;;;5012972;28;20832;-65
2021/05/29 02:08:54;;;;;;;16.20;14.77;;;8.80;99.90;;;;;;5012601;28;20452;-65
2021/05/29 02:11:21;;;;;;;12.80;11.80;;;8.80;99.90;;;;;;5012917;28;20673;-65
2021/05/29 02:13:48;;;;;;;13.00;12.20;;;8.80;99.90;;;;;;5012397;28;20453;-65
2021/05/29 02:16:14;;;;;;;14.50;13.37;;;8.80;99.90;;;;;;5012643;28;20446;-65
2021/05/29 02:18:42;;;;;;;13.77;12.77;;;8.70;99.90;;;;;;5012621;28;21013;-65
2021/05/29 02:21:09;;;;;;;14.17;12.77;;;8.70;99.90;;;;;;5012340;28;20524;-65
2021/05/29 02:23:38;;;;;;;13.67;12.50;;;8.70;99.90;;;;;;5012449;28;20496;-65
2021/05/29 02:26:06;;;;;;;13.97;12.97;;;8.70;99.90;;;;;;5012397;28;20872;-65
2021/05/29 02:28:35;;;;;;;12.97;12.20;;;8.70;99.90;;;;;;5012454;28;20446;-65
2021/05/29 02:31:03;;;;;;;13.97;12.87;;;8.60;99.90;;;;;;5012258;28;20885;-65
2021/05/29 02:33:29;;;;;;;13.03;12.23;;;8.60;99.90;;;;;;5012422;28;20446;-65
2021/05/29 02:35:57;;;;;;;13.03;12.27;;;8.60;99.90;;;;;;5012290;28;20964;-65
2021/05/29 02:38:23;;;;;;;13.70;12.87;;;8.50;99.90;;;;;;5012169;28;20477;-65
2021/05/29 02:40:50;;;;;;;13.80;12.60;;;8.50;99.90;;;;;;5012054;28;20466;-65
2021/05/29 02:43:16;;;;;;;13.60;12.70;;;8.50;99.90;;;;;;5012065;28;20519;-65
2021/05/29 02:45:43;;;;;;;13.60;12.40;;;8.50;99.90;;;;;;5012132;28;20446;-65
2021/05/29 02:48:13;;;;;;;13.53;12.27;;;8.50;99.90;;;;;;5012219;28;20438;-65
2021/05/29 02:50:39;;;;;;;13.00;12.20;;;8.50;99.90;;;;;;5011824;28;20473;-64
2021/05/29 02:53:06;;;;;;;12.80;12.00;;;8.50;99.90;;;;;;5012071;28;20448;-65
2021/05/29 02:55:33;;;;;;;13.83;12.63;;;8.50;99.90;;;;;;5012094;28;20446;-64
2021/05/29 02:58:00;;;;;;;14.93;13.63;;;8.50;99.90;;;;;;5011767;28;20478;-65
2021/05/29 03:00:28;;;;;;;14.17;13.07;;;8.40;99.90;;;;;;5011610;28;20989;-65
2021/05/29 03:02:54;;;;;;;13.50;12.40;;;8.40;99.90;;;;;;5011826;28;20478;-65
2021/05/29 03:05:22;;;;;;;14.50;13.50;;;8.40;99.90;;;;;;5011921;28;20446;-65
2021/05/29 03:07:51;;;;;;;13.57;12.57;;;8.40;99.90;;;;;;5011860;28;20452;-65
2021/05/29 03:10:18;;;;;;;14.57;13.57;;;8.30;99.90;;;;;;5011583;28;20549;-65
2021/05/29 03:12:44;;;;;;;13.10;12.23;;;8.30;99.90;;;;;;5011739;28;20504;-64
2021/05/29 03:15:14;;;;;;;13.13;12.13;;;8.30;99.90;;;;;;5012010;28;20513;-65
2021/05/29 03:17:41;;;;;;;13.37;12.33;;;8.30;99.90;;;;;;5011983;28;20474;-65
2021/05/29 03:20:09;;;;;;;13.03;11.83;;;8.30;99.90;;;;;;5011595;28;20477;-65
2021/05/29 03:22:36;;;;;;;13.53;12.53;;;8.20;99.90;;;;;;5011619;28;20450;-65
2021/05/29 03:25:03;;;;;;;13.70;12.50;;;8.20;99.90;;;;;;5011329;28;20458;-64
2021/05/29 03:27:30;;;;;;;14.43;13.40;;;8.20;99.90;;;;;;5011274;28;20446;-65
2021/05/29 03:29:57;;;;;;;14.00;13.07;;;8.20;99.90;;;;;;5011369;28;20453;-64
2021/05/29 03:32:23;;;;;;;13.67;12.60;;;8.20;99.90;;;;;;5011522;28;20450;-65
2021/05/29 03:34:49;;;;;;;13.97;12.77;;;8.20;99.90;;;;;;5011711;28;20453;-64
2021/05/29 03:37:16;;;;;;;13.73;12.50;;;8.20;99.90;;;;;;5011470;28;20487;-65
2021/05/29 03:39:43;;;;;;;13.40;12.20;;;8.20;99.90;;;;;;5011379;28;20448;-65
2021/05/29 03:42:09;;;;;;;14.67;13.47;;;8.20;99.90;;;;;;5011462;28;20469;-64
2021/05/29 03:44:35;;;;;;;14.40;13.27;;;8.20;99.90;;;;;;5011555;28;20468;-65
2021/05/29 03:47:01;;;;;;;14.10;12.90;;;8.20;99.90;;;;;;5011435;28;20934;-64
2021/05/29 03:49:28;;;;;;;14.83;13.43;;;8.20;99.90;;;;;;5011314;28;20446;-64
2021/05/29 03:51:54;;;;;;;13.83;12.63;;;8.20;99.90;;;;;;5011368;28;20814;-65
2021/05/29 03:54:21;;;;;;;14.40;13.10;;;8.20;99.90;;;;;;5011362;28;20461;-65
2021/05/29 03:56:48;;;;;;;14.80;12.23;;;8.30;99.90;;;;;;5011210;28;20945;-63
2021/05/29 03:59:15;;;;;;;14.07;12.67;;;8.30;99.90;;;;;;5011087;28;20453;-64
2021/05/29 04:01:42;;;;;;;14.73;12.73;;;8.30;99.90;;;;;;5011315;28;20567;-65
2021/05/29 04:04:09;;;;;;;12.93;11.70;;;8.30;99.90;;;;;;5011410;28;20798;-64
2021/05/29 04:06:36;;;;;;;14.13;12.73;;;8.40;99.90;;;;;;5011273;28;20496;-63
2021/05/29 04:09:03;;;;;;;12.70;11.63;;;8.40;99.90;;;;;;5011173;28;20879;-63
2021/05/29 04:11:29;;;;;;;16.53;13.43;;;8.50;99.90;;;;;;5011257;28;20468;-64
2021/05/29 04:13:56;;;;;;;14.67;11.60;;;8.60;99.90;;;;;;5011279;28;20512;-65
2021/05/29 04:16:23;;;;;;;12.40;11.20;;;8.60;99.90;;;;;;5011149;28;20452;-65
2021/05/29 04:18:49;;;;;;;12.77;11.67;;;8.60;99.90;;;;;;5011129;28;20488;-65
2021/05/29 04:21:15;;;;;;;14.30;13.00;;;8.70;99.90;;;;;;5010993;28;20470;-63
2021/05/29 04:23:41;;;;;;;12.63;11.57;;;8.70;99.90;;;;;;5011088;28;20787;-63
2021/05/29 04:26:08;;;;;;;14.13;12.87;;;8.80;99.90;;;;;;5011110;28;20445;-65
2021/05/29 04:28:35;;;;;;;15.17;13.77;;;8.90;99.90;;;;;;5011133;28;20450;-63
2021/05/29 04:31:03;;;;;;;13.17;12.17;;;9.00;99.90;;;;;;5010890;28;20466;-64
2021/05/29 04:33:29;;;;;;;14.57;13.33;;;9.10;99.90;;;;;;5011144;28;20446;-62
2021/05/29 04:35:55;;;;;;;12.20;11.30;;;9.20;99.90;;;;;;5010938;28;21016;-64
2021/05/29 04:38:22;;;;;;;13.00;12.00;;;9.30;99.90;;;;;;5013731;28;20477;-64
2021/05/29 04:40:48;;;;;;;12.87;11.97;;;9.40;99.90;;;;;;5014187;28;20458;-65
2021/05/29 04:43:14;;;;;;;14.80;12.80;;;9.50;99.90;;;;;;5014430;28;20449;-65
2021/05/29 04:45:41;;;;;;;15.13;13.47;;;9.60;99.90;;;;;;5014343;28;20442;-64
2021/05/29 04:48:10;;;;;;;13.03;12.03;;;9.70;99.90;;;;;;5014315;28;20537;-63
2021/05/29 04:51:11;;;;;;;12.20;10.97;;;9.80;99.90;;;;;;5014031;28;20465;-65
2021/05/29 04:53:23;;;;;;;12.53;11.33;;;9.90;99.90;;;;;;5014088;28;20541;-65
2021/05/29 04:55:50;;;;;;;13.70;12.53;;;10.00;99.90;;;;;;5014142;28;20457;-64
2021/05/29 04:58:16;;;;;;;14.17;12.73;;;10.20;99.90;;;;;;5014087;28;20973;-63
2021/05/29 05:00:42;;;;;;;13.57;12.33;;;10.20;99.90;;;;;;5013894;28;20477;-63
2021/05/29 05:03:09;;;;;;;14.00;12.90;;;10.30;99.90;;;;;;5014045;28;20454;-63
2021/05/29 05:05:35;;;;;;;13.03;12.00;;;10.40;99.90;;;;;;5014093;28;20446;-65
2021/05/29 05:08:02;;;;;;;12.77;11.67;;;10.50;99.90;;;;;;5013965;28;20470;-65
2021/05/29 05:10:28;;;;;;;13.90;12.83;;;10.60;99.90;;;;;;5013613;28;20473;-64
2021/05/29 05:12:55;;;;;;;14.00;12.73;;;10.70;99.90;;;;;;5013861;28;20443;-63
2021/05/29 05:15:21;;;;;;;14.60;13.13;;;10.80;99.90;;;;;;5013880;28;20450;-63
2021/05/29 05:17:47;;;;;;;13.83;12.90;;;10.90;99.90;;;;;;5013760;28;20489;-65
2021/05/29 05:20:17;;;;;;;16.10;14.80;;;11.00;99.90;;;;;;5013520;28;20569;-64
2021/05/29 05:22:43;;;;;;;15.27;14.17;;;11.10;99.90;;;;;;5013650;28;20452;-62
2021/05/29 05:25:11;;;;;;;15.10;14.07;;;11.20;99.90;;;;;;5013618;28;20942;-64
2021/05/29 05:27:37;;;;;;;15.60;14.57;;;11.30;99.90;;;;;;5013608;28;20442;-62
2021/05/29 05:30:05;;;;;;;15.53;14.53;;;11.40;99.90;;;;;;5013254;28;20449;-63
2021/05/29 05:32:31;;;;;;;17.40;15.97;;;11.50;99.90;;;;;;5013507;28;20563;-64
2021/05/29 05:34:57;;;;;;;16.30;15.10;;;11.60;99.90;;;;;;5013470;28;20446;-65
2021/05/29 05:37:24;;;;;;;15.87;14.53;;;11.70;99.90;;;;;;5013313;28;20481;-63
2021/05/29 05:39:51;;;;;;;16.60;15.37;;;11.80;99.90;;;;;;5013166;28;20941;-63
2021/05/29 05:42:18;;;;;;;17.23;16.00;;;11.90;99.90;;;;;;5013264;28;20453;-65
2021/05/29 05:44:44;;;;;;;19.50;18.10;;;12.00;99.90;;;;;;5013335;28;20815;-64
2021/05/29 05:47:10;;;;;;;18.40;16.93;;;12.10;99.90;;;;;;5013283;28;20507;-63
2021/05/29 05:49:38;;;;;;;16.30;15.20;;;12.20;99.90;;;;;;5012292;28;21006;-63
2021/05/29 05:52:04;;;;;;;16.97;15.67;;;12.30;99.90;;;;;;5013178;28;20505;-64
2021/05/29 05:54:31;;;;;;;16.13;15.17;;;12.40;99.90;;;;;;5013058;28;20449;-63
2021/05/29 05:56:57;;;;;;;17.40;16.10;;;12.50;99.90;;;;;;5013153;28;20816;-65
2021/05/29 05:59:23;;;;;;;18.47;17.27;;;12.70;99.90;;;;;;5012934;28;20477;-64
2021/05/29 06:01:50;;;;;;;18.20;17.10;;;12.80;99.90;;;;;;5013541;28;20470;-60
2021/05/29 06:04:16;;;;;;;19.40;18.20;;;12.90;99.90;;;;;;5013017;28;20816;-62
2021/05/29 06:06:42;;;;;;;18.47;17.20;;;13.00;99.90;;;;;;5013026;28;20450;-61
2021/05/29 06:09:09;;;;;;;17.97;16.90;;;13.10;99.90;;;;;;5013054;28;20453;-62
2021/05/29 06:11:35;;;;;;;16.50;15.70;;;13.20;99.90;;;;;;5012570;28;20462;-63
2021/05/29 06:19:30;;;;;;;18.07;17.00;;;13.60;99.90;;;;;;5012565;28;20879;-61
2021/05/29 06:21:57;;;;;;;16.73;15.93;;;13.70;99.90;;;;;;5012583;28;20477;-62
2021/05/29 06:24:25;;;;;;;17.70;16.60;;;13.80;99.90;;;;;;5012517;28;20857;-64
2021/05/29 06:26:52;;;;;;;17.57;16.57;;;13.90;99.90;;;;;;5012524;28;20465;-63
2021/05/29 06:29:19;;;;;;;17.83;16.93;;;14.00;99.90;;;;;;5012376;28;20434;-62
2021/05/29 06:31:46;;;;;;;18.87;17.40;;;14.10;99.90;;;;;;5012374;28;20911;-63
2021/05/29 06:34:13;;;;;;;17.37;16.37;;;14.20;99.90;;;;;;5012371;28;20465;-62
2021/05/29 06:36:39;;;;;;;17.50;16.50;;;14.30;99.90;;;;;;5012321;28;20442;-63
2021/05/29 06:39:06;;;;;;;17.43;16.40;;;14.50;99.90;;;;;;5012322;28;20481;-63
2021/05/29 06:41:32;;;;;;;17.53;16.63;;;14.60;99.90;;;;;;5011943;28;20473;-63
2021/05/29 06:43:59;;;;;;;18.83;17.63;;;14.70;99.90;;;;;;5012200;28;20449;-63
2021/05/29 06:46:26;;;;;;;17.00;16.00;;;14.80;99.90;;;;;;5012193;28;20453;-62
2021/05/29 06:48:53;;;;;;;17.90;16.90;;;14.90;99.90;;;;;;5012181;28;20442;-63
2021/05/29 06:51:29;;;;;;;17.07;16.17;;;15.10;99.90;;;;;;5011824;28;20469;-63
2021/05/29 06:53:55;;;;;;;17.40;16.40;;;15.20;99.90;;;;;;5012074;28;20456;-64
2021/05/29 06:59:06;;;;;;;18.13;17.23;;;15.30;99.90;;;;;;5012125;28;20473;-64
2021/05/29 07:01:33;;;;;;;18.77;17.83;;;15.40;99.90;;;;;;5010644;28;20478;-62
2021/05/29 07:03:59;;;;;;;18.10;17.10;;;15.60;99.90;;;;;;5012135;28;20437;-61
2021/05/29 07:06:25;;;;;;;18.80;17.80;;;15.70;99.90;;;;;;5012014;28;20963;-63
2021/05/29 07:08:54;;;;;;;17.10;16.20;;;15.70;99.90;;;;;;5011755;28;20965;-62
2021/05/29 07:11:20;;;;;;;18.17;17.27;;;15.80;99.90;;;;;;5011541;28;21160;-63
2021/05/29 07:13:47;;;;;;;18.73;17.47;;;16.00;99.90;;;;;;5011722;28;20457;-62
2021/05/29 07:16:15;;;;;;;18.07;17.07;;;16.10;99.90;;;;;;5011685;28;20453;-62
2021/05/29 07:18:45;;;;;;;17.37;16.57;;;16.20;99.90;;;;;;5011594;28;20488;-61
2021/05/29 07:21:11;;;;;;;18.83;17.93;;;16.30;99.90;;;;;;5011534;28;20841;-63
2021/05/29 07:23:37;;;;;;;18.90;17.70;;;16.30;99.90;;;;;;5011529;28;20450;-63
2021/05/29 07:26:04;;;;;;;18.80;17.90;;;16.30;99.90;;;;;;5011813;28;20449;-61
2021/05/29 07:28:31;;;;;;;18.03;16.80;;;16.40;99.90;;;;;;5011808;28;20446;-63
2021/05/29 07:30:57;;;;;;;18.17;17.27;;;16.50;99.90;;;;;;5011261;28;20481;-63
2021/05/29 07:33:24;;;;;;;17.73;16.90;;;16.50;99.90;;;;;;5011454;28;20938;-60
2021/05/29 07:35:50;;;;;;;18.90;17.67;;;16.60;99.90;;;;;;5011535;28;20988;-62
2021/05/29 07:38:17;;;;;;;18.00;17.10;;;16.70;99.90;;;;;;5011378;28;20485;-64
2021/05/29 07:40:43;;;;;;;19.53;17.43;;;16.70;99.90;;;;;;5011144;28;20981;-61
2021/05/29 07:43:09;;;;;;;17.90;17.10;;;16.80;99.90;;;;;;5011589;28;20450;-63
2021/05/29 07:45:35;;;;;;;18.17;17.37;;;16.90;99.90;;;;;;5011385;28;20446;-63
2021/05/29 07:48:01;;;;;;;18.77;17.87;;;17.00;99.90;;;;;;5011410;28;20446;-63
2021/05/29 07:50:28;;;;;;;16.23;15.53;;;17.00;99.90;;;;;;5011245;28;20528;-63
2021/05/29 07:52:55;;;;;;;17.33;16.53;;;17.00;99.90;;;;;;5011333;28;20447;-63
2021/05/29 07:55:21;;;;;;;16.57;15.77;;;17.10;99.90;;;;;;5011447;28;20481;-62
2021/05/29 07:57:47;;;;;;;16.50;15.70;;;17.30;99.60;;;;;;5011336;28;20478;-62
2021/05/29 08:00:17;;;;;;;15.53;14.90;;;17.30;98.30;;;;;;5011068;28;20488;-63
2021/05/29 08:02:43;;;;;;;16.90;16.13;;;17.40;96.50;;;;;;5011254;28;20528;-63
2021/05/29 08:05:16;;;;;;;17.20;16.30;;;17.40;96.00;;;;;;5011383;28;20450;-63
2021/05/29 08:07:43;;;;;;;16.37;15.67;;;17.40;96.20;;;;;;5011312;28;20446;-63
2021/05/29 08:10:10;;;;;;;15.63;15.00;;;17.70;96.60;;;;;;5011193;28;20846;-62
2021/05/29 08:12:37;;;;;;;14.23;13.63;;;17.80;95.40;;;;;;5013009;28;20442;-63
2021/05/29 08:15:05;;;;;;;14.60;14.00;;;17.70;92.70;;;;;;5014884;28;20449;-62
2021/05/29 08:17:31;;;;;;;15.70;15.10;;;17.80;91.60;;;;;;5014790;28;20450;-64
2021/05/29 08:19:58;;;;;;;15.57;14.77;;;17.50;86.90;;;;;;5014672;28;20438;-64
2021/05/29 08:22:24;;;;;;;15.27;14.57;;;17.50;89.50;;;;;;5014798;28;20972;-62
2021/05/29 08:24:51;;;;;;;14.53;14.00;;;17.80;87.90;;;;;;5014781;28;20813;-64
2021/05/29 08:27:17;;;;;;;15.07;14.50;;;18.00;85.40;;;;;;5014696;28;20441;-63
2021/05/29 08:29:43;;;;;;;14.83;14.33;;;18.10;87.80;;;;;;5014487;28;20805;-61
2021/05/29 08:32:10;;;;;;;14.80;14.20;;;18.30;88.30;;;;;;5014603;28;20462;-60
2021/05/29 08:34:36;;;;;;;14.80;14.20;;;18.20;82.20;;;;;;5014612;28;20445;-60
2021/05/29 08:37:02;;;;;;;14.67;13.87;;;18.00;79.40;;;;;;5014561;28;20632;-63
2021/05/29 08:39:29;;;;;;;14.70;14.20;;;17.90;81.80;;;;;;5014350;28;20505;-59
2021/05/29 08:41:56;;;;;;;16.30;15.70;;;18.00;79.80;;;;;;5014396;28;20466;-63
2021/05/29 08:44:22;;;;;;;15.87;15.20;;;18.20;81.60;;;;;;5014380;28;20516;-64
2021/05/29 08:46:49;;;;;;;15.97;15.37;;;18.30;81.30;;;;;;5014410;28;20458;-60
2021/05/29 08:49:15;;;;;;;15.20;14.60;;;18.30;77.70;;;;;;5014188;28;20942;-62
2021/05/29 08:51:42;;;;;;;14.50;13.90;;;18.10;73.70;;;;;;5013900;28;20473;-63
2021/05/29 08:54:08;;;;;;;16.47;15.77;;;18.00;74.20;;;;;;5014148;28;20453;-63
2021/05/29 08:56:34;;;;;;;16.20;15.50;;;18.20;77.00;;;;;;5014172;28;20458;-61
2021/05/29 08:59:02;;;;;;;15.70;15.20;;;18.30;78.20;;;;;;5014027;28;20486;-60
2021/05/29 09:01:29;;;;;;;14.70;14.20;;;18.50;77.70;;;;;;5013575;28;21057;-63
2021/05/29 09:03:58;;;;;;;14.03;13.63;;;18.50;72.90;;;;;;5014047;28;20445;-63
2021/05/29 09:06:40;;;;;;;15.37;14.67;;;18.40;68.20;;;;;;5013967;28;20824;-63
2021/05/29 09:09:08;;;;;;;14.20;13.73;;;18.80;69.40;;;;;;5013953;28;20478;-63
2021/05/29 09:11:37;;;;;;;15.40;14.80;;;19.10;69.30;;;;;;5013486;28;20985;-61
2021/05/29 09:14:34;;;;;;;15.20;14.60;;;19.20;68.90;;;;;;5013706;28;20865;-61
2021/05/29 09:17:03;;;;;;;15.30;14.80;;;19.30;65.80;;;;;;5013721;28;20449;-63
2021/05/29 09:19:29;;;;;;;14.40;13.80;;;19.40;62.80;;;;;;5013475;28;20478;-60
2021/05/29 09:21:56;;;;;;;15.50;14.90;;;19.60;64.50;;;;;;5013684;28;20466;-63
2021/05/29 09:24:22;;;;;;;16.33;15.47;;;19.70;64.00;;;;;;5012556;28;20438;-62
2021/05/29 09:26:50;;;;;;;15.37;14.73;;;20.10;66.30;;;;;;5013674;28;20533;-62
2021/05/29 09:29:19;;;;;;;15.30;14.80;;;20.30;61.70;;;;;;5013502;28;20442;-62
2021/05/29 09:32:01;;;;;;;16.53;15.93;;;20.70;62.80;;;;;;5013158;28;20466;-63
2021/05/29 09:34:33;;;;;;;15.87;15.07;;;20.70;61.00;;;;;;5013366;28;20929;-63
2021/05/29 09:37:05;;;;;;;16.47;15.60;;;20.70;60.70;;;;;;5013453;28;20540;-59
2021/05/29 09:39:32;;;;;;;16.73;15.93;;;20.90;58.90;;;;;;5013220;28;20486;-63
2021/05/29 09:41:59;;;;;;;16.63;16.03;;;21.10;58.90;;;;;;5013093;28;20825;-63
2021/05/29 09:44:27;;;;;;;16.77;16.17;;;21.10;57.00;;;;;;5013314;28;20461;-63
2021/05/29 09:46:55;;;;;;;16.23;15.47;;;21.10;57.20;;;;;;5013220;28;20450;-61
2021/05/29 09:49:25;;;;;;;16.53;15.50;;;21.10;56.70;;;;;;5013305;28;20458;-59
2021/05/29 09:51:51;;;;;;;16.77;16.17;;;21.00;57.70;;;;;;5012890;28;20557;-61
2021/05/29 09:54:17;;;;;;;17.00;16.30;;;21.30;57.70;;;;;;5013044;28;20446;-61
2021/05/29 09:56:45;;;;;;;18.07;17.17;;;21.20;57.60;;;;;;5013113;28;20960;-63
2021/05/29 09:59:12;;;;;;;16.30;15.60;;;21.30;57.80;;;;;;5012881;28;20493;-63
2021/05/29 10:01:47;;;;;;;16.80;16.20;;;21.50;58.90;;;;;;5012511;28;20474;-64
2021/05/29 10:04:16;;;;;;;17.20;16.50;;;21.50;55.90;;;;;;5012846;28;20455;-61
2021/05/29 10:06:54;;;;;;;17.03;16.43;;;21.30;54.80;;;;;;5012802;28;20461;-62
2021/05/29 10:09:20;;;;;;;17.90;17.20;;;20.70;55.30;;;;;;5012833;28;20532;-62
2021/05/29 10:11:47;;;;;;;17.20;16.50;;;20.70;56.20;;;;;;5012457;28;20465;-61
2021/05/29 10:14:13;;;;;;;18.37;17.60;;;20.70;55.20;;;;;;5012739;28;20474;-60
2021/05/29 10:16:39;;;;;;;18.10;17.20;;;20.80;56.10;;;;;;5012661;28;20442;-62
2021/05/29 10:19:07;;;;;;;17.43;16.73;;;20.90;56.10;;;;;;5012497;28;20569;-62
2021/05/29 10:21:36;;;;;;;17.30;16.57;;;20.80;57.30;;;;;;5012350;28;20504;-62
2021/05/29 10:24:06;;;;;;;16.97;16.27;;;20.60;56.70;;;;;;5012455;28;20456;-63
2021/05/29 10:26:32;;;;;;;18.23;17.50;;;20.30;56.80;;;;;;5012563;28;20442;-60
2021/05/29 10:29:00;;;;;;;18.33;17.53;;;20.40;57.90;;;;;;5012362;28;20461;-63
2021/05/29 10:31:31;;;;;;;17.67;16.97;;;20.20;57.60;;;;;;5012186;28;20466;-60
2021/05/29 10:33:57;;;;;;;17.63;16.73;;;20.30;58.80;;;;;;5012439;28;20470;-60
2021/05/29 10:36:41;;;;;;;17.77;16.97;;;20.50;59.10;;;;;;5012023;28;20450;-64
2021/05/29 10:39:11;;;;;;;17.47;16.87;;;20.50;57.40;;;;;;5012268;28;20481;-61
2021/05/29 10:41:54;;;;;;;17.13;16.43;;;20.60;57.30;;;;;;5011953;28;20469;-62
2021/05/29 10:44:51;;;;;;;19.37;18.27;;;20.90;56.20;;;;;;5012204;28;20442;-62
2021/05/29 10:47:21;;;;;;;18.67;17.97;;;21.10;54.00;;;;;;4932499;29;20446;-63
2021/05/29 10:49:57;;;;;;;19.10;18.30;;;21.70;54.40;;;;;;4995200;28;20462;-64
2021/05/29 10:52:49;;;;;;;17.53;16.80;;;22.50;53.50;;;;;;5012159;28;20446;-63
2021/05/29 10:55:28;;;;;;;18.10;17.30;;;22.80;50.90;;;;;;5012075;28;20809;-61
2021/05/29 10:58:00;;;;;;;18.50;17.57;;;23.00;52.10;;;;;;5010952;28;20477;-64
2021/05/29 11:00:54;;;;;;;18.23;17.43;;;23.30;51.60;;;;;;5011584;28;20851;-65
2021/05/29 11:03:22;;;;;;;20.87;19.87;;;23.30;50.70;;;;;;5011895;28;20818;-62
2021/05/29 11:05:50;;;;;;;19.60;18.80;;;23.10;50.10;;;;;;5011834;28;20453;-63
2021/05/29 11:08:46;;;;;;;20.63;19.60;;;23.00;50.60;;;;;;5011824;28;20446;-64
2021/05/29 11:11:49;;;;;;;19.23;18.43;;;22.60;50.80;;;;;;5011540;28;20485;-64
2021/05/29 11:14:17;;;;;;;19.67;18.77;;;21.90;51.00;;;;;;5011843;28;20449;-63
2021/05/29 11:17:09;;;;;;;22.17;21.03;;;21.80;51.40;;;;;;5011689;28;20450;-62
2021/05/29 11:19:36;;;;;;;20.70;19.70;;;21.70;51.80;;;;;;5011632;28;20485;-61
2021/05/29 11:22:04;;;;;;;18.37;17.67;;;22.70;52.70;;;;;;5011413;28;20474;-64
2021/05/29 11:24:32;;;;;;;19.03;18.17;;;23.20;51.10;;;;;;5011618;28;20557;-63
2021/05/29 11:26:59;;;;;;;21.03;20.03;;;22.90;50.20;;;;;;5011658;28;20486;-62
2021/05/29 11:29:26;;;;;;;20.97;19.87;;;22.70;49.20;;;;;;5011739;28;20532;-62
2021/05/29 11:31:53;;;;;;;21.23;20.23;;;22.70;50.40;;;;;;5011337;28;20465;-61
2021/05/29 11:34:19;;;;;;;21.13;20.13;;;24.80;50.80;;;;;;5011488;28;20497;-62
2021/05/29 11:36:46;;;;;;;22.43;21.20;;;26.70;48.40;;;;;;5011538;28;20569;-62
2021/05/29 11:39:14;;;;;;;22.33;21.23;;;26.20;46.20;;;;;;5011463;28;20485;-62
2021/05/29 11:41:42;;;;;;;21.23;20.33;;;25.40;45.60;;;;;;5011213;28;20474;-59
2021/05/29 11:44:20;;;;;;;21.23;20.23;;;25.00;45.90;;;;;;5011536;28;20453;-60
2021/05/29 11:46:47;;;;;;;22.13;21.03;;;26.30;43.60;;;;;;5012147;28;20928;-61
2021/05/29 11:49:14;;;;;;;22.33;21.20;;;27.90;43.70;;;;;;5015432;28;20952;-60
2021/05/29 11:51:42;;;;;;;23.70;22.40;;;26.70;41.70;;;;;;5015170;28;20472;-61
2021/05/29 11:54:10;;;;;;;23.37;22.17;;;24.80;43.90;;;;;;5015178;28;20441;-60
2021/05/29 11:56:38;;;;;;;21.77;20.77;;;24.00;46.00;;;;;;5015328;28;20453;-60
2021/05/29 11:59:06;;;;;;;23.00;21.60;;;26.20;48.40;;;;;;5015026;28;20488;-63
2021/05/29 12:01:34;;;;;;;22.13;21.13;;;30.90;43.20;;;;;;5057009;23;20542;-64
2021/05/29 12:04:02;;;;;;;21.43;20.60;;;33.60;36.40;;;;;;5015042;28;20438;-64
2021/05/29 12:06:40;;;;;;;20.90;19.90;;;36.00;32.20;;;;;;5014886;28;20468;-63
2021/05/29 12:09:15;;;;;;;21.00;20.00;;;38.70;28.50;;;;;;5015122;28;20198;-63
2021/05/29 12:11:43;;;;;;;22.27;21.20;;;36.40;27.60;;;;;;5014669;28;20222;-63
2021/05/29 12:14:13;;;;;;;21.67;20.60;;;33.60;29.50;;;;;;5014971;28;20249;-64
2021/05/29 12:16:42;;;;;;;21.70;20.63;;;32.50;30.50;;;;;;5014840;28;20956;-64
2021/05/29 12:19:26;;;;;;;22.17;21.17;;;30.60;32.20;;;;;;5014518;28;20884;-62
2021/05/29 12:21:54;;;;;;;21.67;20.80;;;27.90;34.70;;;;;;5014517;28;20461;-63
2021/05/29 12:24:21;;;;;;;22.40;21.30;;;31.30;34.90;;;;;;5014548;28;20446;-64
2021/05/29 12:26:50;;;;;;;19.63;18.83;;;30.00;32.20;;;;;;5014454;28;21003;-63
2021/05/29 12:29:18;;;;;;;20.87;19.97;;;33.30;33.50;;;;;;5014647;28;20516;-63
2021/05/29 12:31:56;;;;;;;20.40;19.50;;;33.40;28.90;;;;;;5014393;28;20980;-64
2021/05/29 12:34:25;;;;;;;19.98;19.17;;;36.00;29.90;;;;;;5014482;28;20441;-63
2021/05/29 12:37:04;;;;;;;20.58;19.77;;;39.90;26.70;;;;;;5014438;28;20573;-64
2021/05/29 12:39:52;;;;;;;20.85;19.95;;;39.40;24.70;;;;;;5014293;28;20225;-64
2021/05/29 12:42:44;;;;;;;21.37;20.50;;;37.40;26.10;;;;;;5014129;28;20308;-62
2021/05/29 12:45:18;;;;;;;21.57;20.67;;;34.80;27.70;;;;;;5006370;28;20214;-65